createdAt,value
2022-09-23T00:01:02.991Z,101108.38
2022-09-23T00:03:30.862Z,101108.47
2022-09-23T00:06:06.664Z,101092.75
2022-09-23T00:08:33.931Z,101096.00
2022-09-23T00:11:10.813Z,101110.53
2022-09-23T00:13:38.884Z,101103.81
2022-09-23T00:16:10.729Z,101100.16
2022-09-23T00:18:37.506Z,101111.47
2022-09-23T00:21:05.341Z,101039.66
2022-09-23T00:23:32.342Z,101056.56
2022-09-23T00:26:00.624Z,101110.13
2022-09-23T00:28:27.154Z,101088.56
2022-09-23T00:30:53.577Z,101093.75
2022-09-23T00:33:19.991Z,101078.00
2022-09-23T00:35:47.271Z,101077.28
2022-09-23T00:38:14.274Z,101093.22
2022-09-23T00:40:46.065Z,101103.81
2022-09-23T00:43:14.726Z,101102.19
2022-09-23T00:45:45.081Z,101102.34
2022-09-23T00:48:17.080Z,101105.03
2022-09-23T00:50:54.077Z,101088.75
2022-09-23T00:53:23.936Z,101088.91
2022-09-23T00:55:57.151Z,101073.44
2022-09-23T00:58:31.107Z,101084.84
2022-09-23T01:01:00.318Z,101096.81
2022-09-23T01:03:27.112Z,101099.28
2022-09-23T01:05:53.728Z,101082.06
2022-09-23T01:08:22.092Z,101085.53
2022-09-23T01:11:24.237Z,101090.47
2022-09-23T01:14:16.134Z,101090.72
2022-09-23T01:17:03.934Z,101058.56
2022-09-23T01:19:36.321Z,101081.78
2022-09-23T01:22:19.434Z,101057.94
2022-09-23T01:25:34.127Z,101085.38
2022-09-23T01:28:29.044Z,101078.81
2022-09-23T01:31:20.625Z,101081.22
2022-09-23T01:33:58.728Z,101056.72
2022-09-23T01:36:39.307Z,101059.31
2022-09-23T01:39:14.694Z,101074.00
2022-09-23T01:41:50.342Z,101070.63
2022-09-23T01:44:20.171Z,101009.16
2022-09-23T01:46:59.742Z,101068.72
2022-09-23T01:49:35.137Z,100999.84
2022-09-23T01:52:16.088Z,101041.22
2022-09-23T01:54:50.592Z,101025.75
2022-09-23T01:57:21.468Z,101035.97
2022-09-23T01:59:52.610Z,101049.81
2022-09-23T02:02:28.189Z,100981.53
2022-09-23T02:05:30.223Z,101064.31
2022-09-23T02:08:06.235Z,101027.31
2022-09-23T02:10:37.334Z,101042.84
2022-09-23T02:13:13.870Z,101057.63
2022-09-23T02:15:47.475Z,101051.63
2022-09-23T02:18:29.166Z,101029.09
2022-09-23T02:21:02.773Z,101043.03
2022-09-23T02:23:39.979Z,100997.28
2022-09-23T02:26:19.294Z,101055.06
2022-09-23T02:29:04.445Z,101028.44
2022-09-23T02:31:51.925Z,101053.47
2022-09-23T02:34:37.215Z,101027.78
2022-09-23T02:37:10.595Z,101048.34
2022-09-23T02:40:05.277Z,101043.31
2022-09-23T02:42:48.909Z,100985.81
2022-09-23T02:45:15.635Z,101014.25
2022-09-23T02:47:46.637Z,100977.59
2022-09-23T02:50:13.732Z,100996.44
2022-09-23T02:52:40.568Z,101003.38
2022-09-23T02:55:11.882Z,101033.25
2022-09-23T02:57:38.663Z,101022.75
2022-09-23T03:00:05.732Z,101014.06
2022-09-23T03:03:12.463Z,101018.22
2022-09-23T03:05:50.041Z,100993.13
2022-09-23T03:08:38.677Z,101004.56
2022-09-23T03:11:13.388Z,101007.06
2022-09-23T03:13:53.824Z,100972.75
2022-09-23T03:16:43.758Z,101015.88
2022-09-23T03:19:25.378Z,101012.44
2022-09-23T03:22:29.757Z,100993.53
2022-09-23T03:25:01.562Z,101009.00
2022-09-23T03:27:32.321Z,100989.19
2022-09-23T03:29:59.951Z,100982.28
2022-09-23T03:32:28.910Z,100987.69
2022-09-23T03:34:58.478Z,100953.94
2022-09-23T03:37:32.275Z,101002.16
2022-09-23T03:40:28.549Z,101010.03
2022-09-23T03:42:57.360Z,100989.13
2022-09-23T03:45:31.617Z,100991.31
2022-09-23T03:47:58.171Z,100996.47
2022-09-23T03:50:24.874Z,100994.28
2022-09-23T03:52:51.306Z,100988.28
2022-09-23T03:55:19.126Z,100989.88
2022-09-23T03:57:45.718Z,100995.25
2022-09-23T04:00:13.734Z,100969.28
2022-09-23T04:02:40.633Z,100992.75
2022-09-23T04:05:08.645Z,100997.28
2022-09-23T04:07:34.970Z,100989.75
2022-09-23T04:10:01.284Z,100976.63
2022-09-23T04:12:27.662Z,100969.38
2022-09-23T04:14:53.977Z,100942.63
2022-09-23T04:17:20.291Z,100951.88
2022-09-23T04:19:46.772Z,100948.63
2022-09-23T04:22:13.337Z,100961.78
2022-09-23T04:24:39.696Z,100936.53
2022-09-23T04:27:06.295Z,100959.16
2022-09-23T04:29:32.638Z,100969.78
2022-09-23T04:31:59.122Z,100936.91
2022-09-23T04:34:25.490Z,100959.28
2022-09-23T04:36:51.910Z,100959.34
2022-09-23T04:39:18.368Z,100964.53
2022-09-23T04:41:45.287Z,100967.97
2022-09-23T04:44:12.748Z,100951.75
2022-09-23T04:46:43.801Z,100970.91
2022-09-23T04:49:10.649Z,100908.59
2022-09-23T04:51:37.039Z,100943.28
2022-09-23T04:54:03.454Z,100911.41
2022-09-23T04:56:33.681Z,100963.03
2022-09-23T04:59:01.554Z,100951.09
2022-09-23T05:01:34.442Z,100935.59
2022-09-23T05:04:05.139Z,100962.13
2022-09-23T05:06:34.975Z,100958.81
2022-09-23T05:09:02.529Z,100941.75
2022-09-23T05:11:31.232Z,100966.31
2022-09-23T05:13:58.174Z,100945.91
2022-09-23T05:16:25.492Z,100964.16
2022-09-23T05:18:53.173Z,100938.28
2022-09-23T05:21:21.569Z,100950.38
2022-09-23T05:23:56.525Z,100972.03
2022-09-23T05:26:25.382Z,100946.94
2022-09-23T05:28:52.731Z,100945.03
2022-09-23T05:31:21.333Z,100961.41
2022-09-23T05:33:54.487Z,100894.31
2022-09-23T05:36:22.975Z,100966.13
2022-09-23T05:38:51.105Z,100953.28
2022-09-23T05:41:19.404Z,100955.19
2022-09-23T05:43:47.117Z,100945.66
2022-09-23T05:46:15.910Z,100970.69
2022-09-23T05:48:43.620Z,100963.06
2022-09-23T05:51:14.519Z,100945.66
2022-09-23T05:53:42.609Z,100962.72
2022-09-23T05:56:08.927Z,100971.19
2022-09-23T05:58:35.429Z,100939.97
2022-09-23T06:01:09.351Z,100963.63
2022-09-23T06:03:35.737Z,100906.50
2022-09-23T06:06:02.051Z,100937.31
2022-09-23T06:08:28.394Z,100951.09
2022-09-23T06:10:54.822Z,100950.31
2022-09-23T06:13:21.454Z,100959.78
2022-09-23T06:15:47.866Z,100950.94
2022-09-23T06:18:14.357Z,100963.25
2022-09-23T06:20:40.719Z,100864.78
2022-09-23T06:23:10.634Z,100947.56
2022-09-23T06:25:41.029Z,100945.78
2022-09-23T06:28:11.436Z,100969.94
2022-09-23T06:30:39.539Z,100957.63
2022-09-23T06:33:05.931Z,100935.94
2022-09-23T06:35:35.123Z,100972.97
2022-09-23T06:38:05.322Z,100964.03
2022-09-23T06:40:31.908Z,100951.28
2022-09-23T06:43:00.364Z,100930.84
2022-09-23T06:45:27.641Z,100966.94
2022-09-23T06:47:58.341Z,100960.28
2022-09-23T06:50:27.693Z,100949.63
2022-09-23T06:52:56.043Z,100965.81
2022-09-23T06:55:27.885Z,100972.66
2022-09-23T06:57:57.850Z,100968.88
2022-09-23T07:00:25.242Z,100974.72
2022-09-23T07:02:52.012Z,100955.59
2022-09-23T07:05:18.394Z,100947.03
2022-09-23T07:07:45.073Z,100947.03
2022-09-23T07:10:12.137Z,100979.84
2022-09-23T07:12:38.980Z,100977.84
2022-09-23T07:15:05.961Z,100974.38
2022-09-23T07:17:32.485Z,100986.28
2022-09-23T07:19:59.222Z,100972.31
2022-09-23T07:22:26.371Z,100989.81
2022-09-23T07:24:56.590Z,100981.94
2022-09-23T07:27:25.282Z,100965.41
2022-09-23T07:29:52.080Z,100952.44
2022-09-23T07:32:20.293Z,100968.59
2022-09-23T07:34:47.199Z,100946.19
2022-09-23T07:37:17.690Z,100987.44
2022-09-23T07:39:45.032Z,100970.81
2022-09-23T07:42:14.182Z,100978.28
2022-09-23T07:44:43.913Z,100960.22
2022-09-23T07:47:10.257Z,100955.09
2022-09-23T07:49:36.981Z,100984.03
2022-09-23T07:52:04.696Z,100983.00
2022-09-23T07:54:31.779Z,100973.03
2022-09-23T07:56:59.230Z,100973.69
2022-09-23T07:59:26.942Z,100979.50
2022-09-23T08:01:54.679Z,100916.47
2022-09-23T08:04:22.231Z,100951.47
2022-09-23T08:06:51.526Z,100954.91
2022-09-23T08:09:19.910Z,100981.53
2022-09-23T08:11:46.472Z,100957.41
2022-09-23T08:14:14.410Z,100939.09
2022-09-23T08:16:41.799Z,100970.00
2022-09-23T08:19:08.668Z,100971.72
2022-09-23T08:21:35.162Z,100976.06
2022-09-23T08:24:01.667Z,100962.00
2022-09-23T08:26:28.707Z,100975.38
2022-09-23T08:28:56.367Z,100971.94
2022-09-23T08:31:23.590Z,100939.97
2022-09-23T08:33:57.765Z,100962.13
2022-09-23T08:36:25.440Z,100958.53
2022-09-23T08:38:52.274Z,100969.44
2022-09-23T08:41:29.261Z,100976.13
2022-09-23T08:44:03.813Z,100942.28
2022-09-23T08:46:40.526Z,100941.38
2022-09-23T08:49:09.017Z,100865.19
2022-09-23T08:51:46.014Z,100876.69
2022-09-23T08:54:13.704Z,100991.06
2022-09-23T08:56:44.163Z,100955.91
2022-09-23T08:59:40.358Z,100950.00
2022-09-23T09:02:15.387Z,100977.16
2022-09-23T09:04:44.541Z,100970.41
2022-09-23T09:07:35.676Z,100949.53
2022-09-23T09:10:19.280Z,100964.91
2022-09-23T09:12:53.934Z,100921.91
2022-09-23T09:15:24.657Z,100976.72
2022-09-23T09:18:16.319Z,100967.81
2022-09-23T09:20:48.933Z,100962.41
2022-09-23T09:23:47.737Z,100961.97
2022-09-23T09:26:22.198Z,100916.50
2022-09-23T09:29:11.440Z,100929.19
2022-09-23T09:31:49.022Z,100945.63
2022-09-23T09:34:24.419Z,100952.22
2022-09-23T09:37:07.264Z,100948.72
2022-09-23T09:39:35.277Z,100913.63
2022-09-23T09:42:02.640Z,100929.88
2022-09-23T09:45:02.589Z,100947.34
2022-09-23T09:47:49.765Z,100944.78
2022-09-23T09:50:21.956Z,100900.19
2022-09-23T09:52:48.889Z,100948.66
2022-09-23T09:55:28.926Z,100898.94
2022-09-23T09:58:01.547Z,100906.84
2022-09-23T10:00:27.877Z,100945.03
2022-09-23T10:03:01.758Z,100894.59
2022-09-23T10:05:43.448Z,100941.03
2022-09-23T10:08:34.847Z,100946.41
2022-09-23T10:11:15.017Z,100937.75
2022-09-23T10:14:02.283Z,100929.16
2022-09-23T10:16:34.235Z,100933.22
2022-09-23T10:19:11.256Z,100938.25
2022-09-23T10:21:38.361Z,100928.28
2022-09-23T10:24:06.943Z,100928.28
2022-09-23T10:26:41.337Z,100907.94
2022-09-23T10:29:23.112Z,100935.69
2022-09-23T10:31:53.738Z,100905.69
2022-09-23T10:34:27.319Z,100910.75
2022-09-23T10:37:14.383Z,100903.59
2022-09-23T10:40:16.876Z,100917.56
2022-09-23T10:43:33.392Z,100918.25
2022-09-23T10:46:23.789Z,100902.38
2022-09-23T10:49:27.585Z,100916.00
2022-09-23T10:52:15.965Z,100920.06
2022-09-23T10:55:19.840Z,100910.34
2022-09-23T10:57:46.281Z,100913.03
2022-09-23T11:01:00.976Z,100903.47
2022-09-23T11:03:50.546Z,100893.88
2022-09-23T11:06:40.245Z,100904.59
2022-09-23T11:09:28.391Z,100905.97
2022-09-23T11:12:08.231Z,100899.50
2022-09-23T11:15:10.858Z,100862.28
2022-09-23T11:18:19.526Z,100894.22
2022-09-23T11:21:07.118Z,100865.91
2022-09-23T11:23:55.419Z,100887.91
2022-09-23T11:26:41.795Z,100893.81
2022-09-23T11:29:26.884Z,100892.22
2022-09-23T11:32:02.308Z,100891.25
2022-09-23T11:34:54.940Z,100889.66
2022-09-23T11:37:27.598Z,100878.69
2022-09-23T11:40:18.938Z,100885.22
2022-09-23T11:43:07.143Z,100881.78
2022-09-23T11:45:39.705Z,100824.16
2022-09-23T11:48:13.786Z,100877.13
2022-09-23T11:50:49.882Z,100856.59
2022-09-23T11:53:24.397Z,100854.34
2022-09-23T11:56:23.991Z,100848.00
2022-09-23T11:59:31.582Z,100818.44
2022-09-23T12:02:19.645Z,100852.81
2022-09-23T12:05:12.320Z,100871.97
2022-09-23T12:07:48.612Z,100862.28
2022-09-23T12:10:15.881Z,100848.78
2022-09-23T12:12:55.897Z,100840.66
2022-09-23T12:15:22.318Z,100867.63
2022-09-23T12:18:01.250Z,100862.06
2022-09-23T12:20:42.747Z,100839.88
2022-09-23T12:23:27.357Z,100855.09
2022-09-23T12:26:01.714Z,100831.03
2022-09-23T12:28:41.220Z,100860.19
2022-09-23T12:31:14.852Z,100858.81
2022-09-23T12:33:50.016Z,100824.88
2022-09-23T12:36:24.057Z,100844.03
2022-09-23T12:38:54.397Z,100825.63
2022-09-23T12:41:26.835Z,100857.44
2022-09-23T12:43:57.410Z,100834.63
2022-09-23T12:46:26.684Z,100823.84
2022-09-23T12:48:57.643Z,100849.00
2022-09-23T12:51:26.183Z,100843.03
2022-09-23T12:54:15.313Z,100836.94
2022-09-23T12:56:43.218Z,100852.78
2022-09-23T12:59:12.145Z,100832.50
2022-09-23T13:01:39.137Z,100829.84
2022-09-23T13:04:31.776Z,100841.94
2022-09-23T13:07:07.537Z,100832.25
2022-09-23T13:09:42.478Z,100829.16
2022-09-23T13:12:19.453Z,100843.66
2022-09-23T13:14:49.974Z,100824.31
2022-09-23T13:17:32.080Z,100840.66
2022-09-23T13:20:01.609Z,100816.97
2022-09-23T13:22:48.678Z,100842.69
2022-09-23T13:25:26.670Z,100841.31
2022-09-23T13:27:55.640Z,100790.56
2022-09-23T13:30:26.474Z,100837.56
2022-09-23T13:33:12.804Z,100819.22
2022-09-23T13:35:44.238Z,100815.09
2022-09-23T13:38:26.014Z,100825.53
2022-09-23T13:40:58.167Z,100807.03
2022-09-23T13:43:34.717Z,100779.28
2022-09-23T13:46:05.239Z,100823.25
2022-09-23T13:48:32.193Z,100798.44
2022-09-23T13:50:59.778Z,100785.97
2022-09-23T13:53:30.031Z,100809.03
2022-09-23T13:56:07.250Z,100808.25
2022-09-23T13:58:35.487Z,100808.66
2022-09-23T14:01:02.275Z,100806.78
2022-09-23T14:03:35.867Z,100805.38
2022-09-23T14:06:09.455Z,100806.47
2022-09-23T14:08:40.193Z,100790.94
2022-09-23T14:11:06.806Z,100776.31
2022-09-23T14:13:41.375Z,100779.72
2022-09-23T14:16:11.437Z,100783.34
2022-09-23T14:18:41.292Z,100782.00
2022-09-23T14:21:25.776Z,100784.19
2022-09-23T14:23:52.082Z,100756.81
2022-09-23T14:26:19.121Z,100774.69
2022-09-23T14:28:47.544Z,100713.31
2022-09-23T14:31:13.990Z,100761.78
2022-09-23T14:33:42.271Z,100773.56
2022-09-23T14:36:39.168Z,100773.88
2022-09-23T14:39:09.393Z,100757.69
2022-09-23T14:41:43.043Z,100769.97
2022-09-23T14:44:22.929Z,100767.94
2022-09-23T14:46:56.775Z,100780.47
2022-09-23T14:49:24.165Z,100770.38
2022-09-23T14:51:54.651Z,100769.69
2022-09-23T14:54:46.063Z,100765.72
2022-09-23T14:57:31.716Z,100762.84
2022-09-23T15:00:14.154Z,100726.50
2022-09-23T15:02:44.222Z,100737.81
2022-09-23T15:05:22.192Z,100759.91
2022-09-23T15:07:55.209Z,100751.84
2022-09-23T15:10:30.111Z,100755.09
2022-09-23T15:13:08.441Z,100728.22
2022-09-23T15:15:35.630Z,100690.97
2022-09-23T15:18:07.933Z,100741.22
2022-09-23T15:20:35.286Z,100749.94
2022-09-23T15:23:01.715Z,100719.97
2022-09-23T15:25:40.609Z,100736.41
2022-09-23T15:28:09.925Z,100741.81
2022-09-23T15:30:38.076Z,100720.69
2022-09-23T15:33:05.526Z,100744.16
2022-09-23T15:35:32.514Z,100721.09
2022-09-23T15:38:02.037Z,100710.94
2022-09-23T15:40:30.838Z,100707.34
2022-09-23T15:42:59.376Z,100733.38
2022-09-23T15:45:33.258Z,100736.97
2022-09-23T15:48:07.241Z,100720.19
2022-09-23T15:50:37.071Z,100730.28
2022-09-23T15:53:06.209Z,100734.06
2022-09-23T15:55:33.607Z,100732.34
2022-09-23T15:58:00.461Z,100735.09
2022-09-23T16:00:27.093Z,100733.53
2022-09-23T16:02:54.086Z,100735.09
2022-09-23T16:05:26.493Z,100734.41
2022-09-23T16:07:52.999Z,100710.94
2022-09-23T16:10:21.458Z,100702.53
2022-09-23T16:12:48.870Z,100733.03
2022-09-23T16:15:17.969Z,100738.16
2022-09-23T16:17:45.193Z,100727.63
2022-09-23T16:20:16.093Z,100713.53
2022-09-23T16:22:42.458Z,100730.81
2022-09-23T16:25:11.971Z,100742.03
2022-09-23T16:27:40.008Z,100745.19
2022-09-23T16:30:07.243Z,100710.44
2022-09-23T16:32:33.544Z,100736.88
2022-09-23T16:34:59.843Z,100729.63
2022-09-23T16:37:26.189Z,100731.69
2022-09-23T16:39:52.556Z,100736.56
2022-09-23T16:42:19.101Z,100689.69
2022-09-23T16:44:45.473Z,100725.38
2022-09-23T16:47:11.778Z,100714.16
2022-09-23T16:49:38.154Z,100727.53
2022-09-23T16:52:04.499Z,100723.19
2022-09-23T16:54:31.843Z,100720.66
2022-09-23T16:56:58.998Z,100730.97
2022-09-23T16:59:45.478Z,100721.19
2022-09-23T17:02:30.406Z,100685.00
2022-09-23T17:04:57.195Z,100735.38
2022-09-23T17:07:23.539Z,100709.84
2022-09-23T17:09:50.610Z,100730.09
2022-09-23T17:12:24.582Z,100738.66
2022-09-23T17:14:52.394Z,100725.94
2022-09-23T17:17:18.919Z,100711.88
2022-09-23T17:19:45.219Z,100703.66
2022-09-23T17:22:11.549Z,100714.28
2022-09-23T17:24:37.909Z,100716.16
2022-09-23T17:27:04.235Z,100709.66
2022-09-23T17:29:30.644Z,100721.91
2022-09-23T17:31:57.061Z,100729.66
2022-09-23T17:34:24.011Z,100698.38
2022-09-23T17:36:50.727Z,100708.53
2022-09-23T17:39:17.275Z,100723.16
2022-09-23T17:41:45.275Z,100711.16
2022-09-23T17:44:11.720Z,100710.25
2022-09-23T17:46:38.139Z,100693.25
2022-09-23T17:49:05.324Z,100714.00
2022-09-23T17:51:31.632Z,100694.84
2022-09-23T17:53:57.982Z,100698.16
2022-09-23T17:56:26.371Z,100709.16
2022-09-23T17:58:53.685Z,100715.53
2022-09-23T18:01:25.887Z,100698.72
2022-09-23T18:03:57.110Z,100694.19
2022-09-23T18:06:25.620Z,100711.31
2022-09-23T18:08:52.772Z,100703.22
2022-09-23T18:11:22.382Z,100689.13
2022-09-23T18:13:56.818Z,100704.47
2022-09-23T18:16:24.566Z,100715.84
2022-09-23T18:18:56.096Z,100711.66
2022-09-23T18:21:23.994Z,100682.13
2022-09-23T18:23:50.533Z,100684.53
2022-09-23T18:26:19.259Z,100712.41
2022-09-23T18:28:45.947Z,100702.75
2022-09-23T18:31:12.545Z,100724.25
2022-09-23T18:33:39.156Z,100709.56
2022-09-23T18:36:05.946Z,100704.94
2022-09-23T18:38:32.781Z,100732.53
2022-09-23T18:41:00.258Z,100713.66
2022-09-23T18:43:37.408Z,100728.94
2022-09-23T18:46:09.926Z,100715.53
2022-09-23T18:48:54.981Z,100691.41
2022-09-23T18:51:25.336Z,100734.09
2022-09-23T18:53:57.399Z,100729.56
2022-09-23T18:56:26.546Z,100743.13
2022-09-23T18:58:55.025Z,100721.28
2022-09-23T19:01:23.100Z,100741.34
2022-09-23T19:03:55.097Z,100733.59
2022-09-23T19:06:21.959Z,100730.66
2022-09-23T19:08:53.032Z,100704.03
2022-09-23T19:11:20.497Z,100704.25
2022-09-23T19:13:47.247Z,100718.06
2022-09-23T19:16:15.861Z,100691.50
2022-09-23T19:18:45.576Z,100723.50
2022-09-23T19:21:13.601Z,100729.31
2022-09-23T19:23:44.420Z,100685.47
2022-09-23T19:26:12.299Z,100699.03
2022-09-23T19:28:39.314Z,100690.91
2022-09-23T19:31:16.643Z,100725.06
2022-09-23T19:33:46.266Z,100739.09
2022-09-23T19:36:16.164Z,100721.78
2022-09-23T19:38:42.483Z,100683.69
2022-09-23T19:41:09.054Z,100670.81
2022-09-23T19:43:38.254Z,100667.72
2022-09-23T19:46:06.669Z,100677.13
2022-09-23T19:48:34.990Z,100696.22
2022-09-23T19:51:02.528Z,100680.19
2022-09-23T19:53:28.838Z,100700.91
2022-09-23T19:55:56.067Z,100673.63
2022-09-23T19:58:23.100Z,100663.66
2022-09-23T20:00:49.502Z,100694.66
2022-09-23T20:03:17.592Z,100677.97
2022-09-23T20:05:44.042Z,100695.75
2022-09-23T20:08:10.660Z,100682.63
2022-09-23T20:10:39.511Z,100631.91
2022-09-23T20:13:05.908Z,100668.31
2022-09-23T20:15:32.262Z,100678.75
2022-09-23T20:17:58.596Z,100670.03
2022-09-23T20:20:24.930Z,100675.03
2022-09-23T20:22:52.709Z,100603.03
2022-09-23T20:25:19.070Z,100652.28
2022-09-23T20:27:51.138Z,100696.06
2022-09-23T20:30:17.829Z,100670.38
2022-09-23T20:32:45.002Z,100666.69
2022-09-23T20:35:11.387Z,100675.81
2022-09-23T20:37:37.746Z,100672.69
2022-09-23T20:40:04.686Z,100673.94
2022-09-23T20:42:31.868Z,100677.19
2022-09-23T20:44:58.416Z,100674.72
2022-09-23T20:47:24.873Z,100665.22
2022-09-23T20:49:51.330Z,100707.88
2022-09-23T20:52:18.029Z,100611.50
2022-09-23T20:54:44.440Z,100653.22
2022-09-23T20:57:14.026Z,100659.94
2022-09-23T20:59:40.675Z,100638.44
2022-09-23T21:02:07.842Z,100676.91
2022-09-23T21:04:34.891Z,100684.06
2022-09-23T21:07:01.241Z,100666.78
2022-09-23T21:09:30.903Z,100685.47
2022-09-23T21:11:57.883Z,100679.84
2022-09-23T21:14:24.332Z,100564.28
2022-09-23T21:16:51.410Z,100690.00
2022-09-23T21:19:19.227Z,100698.72
2022-09-23T21:21:45.888Z,100665.28
2022-09-23T21:24:40.062Z,100660.19
2022-09-23T21:26:59.112Z,100692.66
2022-09-23T21:29:25.435Z,100700.72
2022-09-23T21:31:51.777Z,100693.72
2022-09-23T21:34:18.252Z,100686.88
2022-09-23T21:36:45.170Z,100677.34
2022-09-23T21:39:12.143Z,100690.28
2022-09-23T21:41:39.062Z,100654.22
2022-09-23T21:44:06.642Z,100683.28
2022-09-23T21:46:33.884Z,100663.34
2022-09-23T21:49:03.794Z,100684.28
2022-09-23T21:51:35.121Z,100685.84
2022-09-23T21:54:01.582Z,100675.94
2022-09-23T21:56:35.038Z,100668.13
2022-09-23T21:59:01.712Z,100678.84
2022-09-23T22:01:30.684Z,100692.56
2022-09-23T22:04:05.022Z,100691.00
2022-09-23T22:06:32.018Z,100683.84
2022-09-23T22:09:01.252Z,100661.88
2022-09-23T22:11:51.792Z,100693.66
2022-09-23T22:14:20.652Z,100694.72
2022-09-23T22:16:47.037Z,100621.56
2022-09-23T22:19:14.970Z,100694.72
2022-09-23T22:21:42.893Z,100655.28
2022-09-23T22:24:10.541Z,100686.00
2022-09-23T22:26:42.552Z,100651.06
2022-09-23T22:29:32.712Z,100685.44
2022-09-23T22:32:19.515Z,100671.84
2022-09-23T22:34:50.448Z,100646.78
2022-09-23T22:37:21.153Z,100678.56
2022-09-23T22:39:47.501Z,100677.13
2022-09-23T22:42:14.246Z,100630.44
2022-09-23T22:44:40.649Z,100650.56
2022-09-23T22:47:07.999Z,100670.72
2022-09-23T22:49:34.469Z,100573.00
2022-09-23T22:52:02.281Z,100681.34
2022-09-23T22:54:33.733Z,100664.13
2022-09-23T22:57:04.019Z,100676.28
2022-09-23T22:59:30.435Z,100671.28
2022-09-23T23:01:57.401Z,100660.19
2022-09-23T23:04:23.770Z,100648.28
2022-09-23T23:06:50.069Z,100647.28
2022-09-23T23:09:18.400Z,100671.00
2022-09-23T23:11:45.426Z,100621.22
2022-09-23T23:14:13.614Z,100660.19
2022-09-23T23:16:40.607Z,100631.13
2022-09-23T23:19:09.576Z,100651.25
2022-09-23T23:21:36.809Z,100649.56
2022-09-23T23:24:04.840Z,100656.56
2022-09-23T23:26:33.315Z,100664.00
2022-09-23T23:29:01.392Z,100668.00
2022-09-23T23:31:29.156Z,100664.69
2022-09-23T23:33:55.596Z,100626.00
2022-09-23T23:36:23.380Z,100672.16
2022-09-23T23:38:51.641Z,100643.28
2022-09-23T23:41:21.494Z,100667.72
2022-09-23T23:43:54.674Z,100666.69
2022-09-23T23:46:21.350Z,100622.78
2022-09-23T23:48:48.337Z,100637.34
2022-09-23T23:51:15.646Z,100611.72
2022-09-23T23:53:42.845Z,100643.66
2022-09-23T23:56:12.297Z,100661.72
2022-09-23T23:58:39.427Z,100641.00
